Duck Valley, Nevada
Current Conditions -  °F | °C
As of 10:58 AM on Friday 24 Oct 2014 (Local Time) from KMUO Reporting Station
Scattered Clouds Scattered Clouds  
Wind Chill: 58°   Ceiling: Unl
Heat Index: 58°   Visibility: 10mi
Dew Point: 51°   Wind: 5mph
Humidity: 76%   Direction: 110°ESE
Pressure: 30.1"   Gusts: NA
Location:  41.9458°N, 116.094°W
Report Text: KMUO 241758Z AUTO 11004KT 10SM SCT110 15/10 A3010 RMK AO2 SLP185 T01450104 10145 20098 50001
Loading
Personal Weather Stations






























Interactive Weather Map New forecast layout! Learn more

10-Day Weather Forecast

Advertisements
Track Severe Weather on mobile